createdAt,value
2023-06-19T00:00:36.879Z,7848.00
2023-06-19T00:01:36.960Z,7996.00
2023-06-19T00:02:37.052Z,8156.00
2023-06-19T00:03:37.010Z,8204.00
2023-06-19T00:04:36.970Z,8010.00
2023-06-19T00:05:36.991Z,8015.00
2023-06-19T00:06:36.993Z,8011.00
2023-06-19T00:07:37.027Z,7937.00
2023-06-19T00:08:37.071Z,7889.00
2023-06-19T00:09:37.100Z,7893.00
2023-06-19T00:10:37.139Z,7937.00
2023-06-19T00:11:37.184Z,7980.00
2023-06-19T00:12:37.230Z,8126.00
2023-06-19T00:13:37.246Z,8129.00
2023-06-19T00:14:37.240Z,8152.00
2023-06-19T00:15:37.226Z,8208.00
2023-06-19T00:16:37.304Z,8292.00
2023-06-19T00:17:37.265Z,8361.00
2023-06-19T00:18:37.250Z,8330.00
2023-06-19T00:19:37.326Z,8367.00
2023-06-19T00:20:37.217Z,8327.00
2023-06-19T00:21:37.207Z,8260.00
2023-06-19T00:22:37.184Z,8256.00
2023-06-19T00:23:37.197Z,8280.00
2023-06-19T00:24:37.219Z,8365.00
2023-06-19T00:25:37.177Z,8404.00
2023-06-19T00:26:37.184Z,8406.00
2023-06-19T00:27:37.201Z,8370.00
2023-06-19T00:28:37.200Z,8346.00
2023-06-19T00:29:37.225Z,8341.00
2023-06-19T00:30:37.235Z,8274.00
2023-06-19T00:31:37.238Z,8254.00
2023-06-19T00:32:37.284Z,8376.00
2023-06-19T00:33:37.295Z,8326.00
2023-06-19T00:34:37.262Z,8340.00
2023-06-19T00:35:37.272Z,8350.00
2023-06-19T00:36:37.284Z,8384.00
2023-06-19T00:37:37.310Z,8450.00
2023-06-19T00:38:37.360Z,8461.00
2023-06-19T00:39:37.348Z,8350.00
2023-06-19T00:40:37.380Z,8093.00
2023-06-19T00:41:37.379Z,7791.00
2023-06-19T00:42:37.403Z,7549.00
2023-06-19T00:43:37.488Z,7377.00
2023-06-19T00:44:37.464Z,7381.00
2023-06-19T00:45:37.497Z,7586.00
2023-06-19T00:46:38.194Z,7666.00
2023-06-19T00:47:37.495Z,7825.00
2023-06-19T00:48:37.545Z,7906.00
2023-06-19T00:49:37.643Z,7884.00
2023-06-19T00:50:37.581Z,7714.00
2023-06-19T00:51:37.644Z,7554.00
2023-06-19T00:52:37.642Z,7243.00
2023-06-19T00:53:37.681Z,7050.00
2023-06-19T00:54:37.716Z,7071.00
2023-06-19T00:55:37.720Z,7074.00
2023-06-19T00:56:37.699Z,7103.00
2023-06-19T00:57:37.684Z,7182.00
2023-06-19T00:58:37.725Z,7255.00
2023-06-19T00:59:37.676Z,7188.00
2023-06-19T01:00:37.689Z,7054.00
2023-06-19T01:01:37.694Z,6840.00
2023-06-19T01:02:38.029Z,6631.00
2023-06-19T01:03:37.938Z,6822.00
2023-06-19T01:04:37.724Z,6860.00
2023-06-19T01:05:37.639Z,6933.00
2023-06-19T01:06:37.609Z,6958.00
2023-06-19T01:07:37.637Z,6892.00
2023-06-19T01:08:37.639Z,6691.00
2023-06-19T01:09:37.664Z,6264.00
2023-06-19T01:10:37.663Z,6149.00
2023-06-19T01:11:37.612Z,6209.00
2023-06-19T01:12:37.661Z,6067.00
2023-06-19T01:13:37.717Z,6363.00
2023-06-19T01:14:37.713Z,7003.00
2023-06-19T01:15:37.797Z,7473.00
2023-06-19T01:16:37.882Z,7629.00
2023-06-19T01:17:37.894Z,7743.00
2023-06-19T01:18:37.923Z,7903.00
2023-06-19T01:19:37.941Z,8059.00
2023-06-19T01:20:37.969Z,7832.00
2023-06-19T01:21:37.985Z,7527.00
2023-06-19T01:22:38.024Z,7288.00
2023-06-19T01:23:38.081Z,7243.00
2023-06-19T01:24:38.156Z,7251.00
2023-06-19T01:25:38.276Z,7292.00
2023-06-19T01:26:38.240Z,7330.00
2023-06-19T01:27:38.285Z,7394.00
2023-06-19T01:28:38.325Z,7418.00
2023-06-19T01:29:38.333Z,7481.00
2023-06-19T01:30:38.370Z,7454.00
2023-06-19T01:31:38.343Z,7475.00
2023-06-19T01:32:38.383Z,7482.00
2023-06-19T01:33:38.385Z,7495.00
2023-06-19T01:34:40.955Z,7369.00
2023-06-19T01:35:38.392Z,7086.00
2023-06-19T01:36:38.359Z,6741.00
2023-06-19T01:37:38.405Z,6711.00
2023-06-19T01:38:38.376Z,6804.00
2023-06-19T01:39:38.378Z,6880.00
2023-06-19T01:40:38.325Z,6877.00
2023-06-19T01:41:38.326Z,6926.00
2023-06-19T01:42:38.334Z,6927.00
2023-06-19T01:43:38.349Z,6869.00
2023-06-19T01:44:38.340Z,6878.00
2023-06-19T01:45:38.301Z,6946.00
2023-06-19T01:46:38.341Z,7034.00
2023-06-19T01:47:38.328Z,7077.00
2023-06-19T01:48:38.319Z,7113.00
2023-06-19T01:49:38.289Z,7137.00
2023-06-19T01:50:38.283Z,7161.00
2023-06-19T01:51:38.312Z,7186.00
2023-06-19T01:52:38.287Z,7191.00
2023-06-19T01:53:38.256Z,7227.00
2023-06-19T01:54:38.257Z,7277.00
2023-06-19T01:55:38.250Z,7265.00
2023-06-19T01:56:38.267Z,7364.00
2023-06-19T01:57:38.210Z,7401.00
2023-06-19T01:58:38.231Z,7372.00
2023-06-19T01:59:38.246Z,7359.00
2023-06-19T02:00:38.230Z,7369.00
2023-06-19T02:01:38.234Z,7351.00
2023-06-19T02:02:38.320Z,7375.00
2023-06-19T02:03:38.317Z,7396.00
2023-06-19T02:04:38.203Z,7348.00
2023-06-19T02:05:38.185Z,7423.00
2023-06-19T02:06:38.187Z,7530.00
2023-06-19T02:07:38.173Z,7599.00
2023-06-19T02:08:38.190Z,7685.00
2023-06-19T02:09:38.168Z,7959.00
2023-06-19T02:10:38.169Z,7941.00
2023-06-19T02:11:38.139Z,7951.00
2023-06-19T02:12:38.190Z,8016.00
2023-06-19T02:13:40.189Z,8078.00
2023-06-19T02:14:38.321Z,8104.00
2023-06-19T02:15:38.355Z,8148.00
2023-06-19T02:16:38.437Z,8153.00
2023-06-19T02:17:38.451Z,8047.00
2023-06-19T02:18:38.453Z,7930.00
2023-06-19T02:19:38.445Z,7851.00
2023-06-19T02:20:38.469Z,7810.00
2023-06-19T02:21:38.517Z,7783.00
2023-06-19T02:22:38.543Z,7798.00
2023-06-19T02:23:38.584Z,7883.00
2023-06-19T02:24:38.646Z,7948.00
2023-06-19T02:25:38.618Z,7961.00
2023-06-19T02:26:38.682Z,7903.00
2023-06-19T02:27:38.703Z,7792.00
2023-06-19T02:28:39.001Z,7707.00
2023-06-19T02:29:38.719Z,7648.00
2023-06-19T02:30:38.719Z,7608.00
2023-06-19T02:31:38.753Z,7596.00
2023-06-19T02:32:38.822Z,7620.00
2023-06-19T02:33:38.835Z,7728.00
2023-06-19T02:34:38.906Z,7817.00
2023-06-19T02:35:38.959Z,7954.00
2023-06-19T02:36:39.028Z,7986.00
2023-06-19T02:37:39.114Z,7961.00
2023-06-19T02:38:39.189Z,7920.00
2023-06-19T02:39:39.164Z,8125.00
2023-06-19T02:40:39.160Z,8866.00
2023-06-19T02:41:39.221Z,8387.00
2023-06-19T02:42:39.200Z,8019.00
2023-06-19T02:43:39.218Z,7870.00
2023-06-19T02:44:39.264Z,7769.00
2023-06-19T02:45:39.277Z,7638.00
2023-06-19T02:46:39.285Z,7544.00
2023-06-19T02:47:39.384Z,7504.00
2023-06-19T02:48:39.380Z,7502.00
2023-06-19T02:50:58.684Z,500.00
2023-06-19T02:51:58.684Z,500.00
2023-06-19T02:52:58.641Z,500.00
2023-06-19T02:53:58.657Z,500.00
2023-06-19T02:54:58.700Z,500.00
2023-06-19T02:55:58.676Z,519.00
2023-06-19T02:56:58.669Z,507.00
2023-06-19T02:57:58.626Z,505.00
2023-06-19T02:58:58.640Z,500.00
2023-06-19T02:59:58.916Z,501.00
2023-06-19T03:00:58.628Z,501.00
2023-06-19T03:01:58.589Z,506.00
2023-06-19T03:02:58.751Z,513.00
2023-06-19T03:03:58.617Z,543.00
2023-06-19T03:04:58.610Z,573.00
2023-06-19T03:05:58.558Z,594.00
2023-06-19T03:06:58.565Z,602.00
2023-06-19T03:07:58.538Z,604.00
2023-06-19T03:08:58.562Z,613.00
2023-06-19T03:09:58.566Z,623.00
2023-06-19T03:10:58.563Z,639.00
2023-06-19T03:11:58.554Z,645.00
2023-06-19T03:12:58.497Z,640.00
2023-06-19T03:13:58.540Z,641.00
2023-06-19T03:14:58.505Z,653.00
2023-06-19T03:15:58.526Z,659.00
2023-06-19T03:16:58.539Z,667.00
2023-06-19T03:17:58.579Z,668.00
2023-06-19T03:18:58.589Z,657.00
2023-06-19T03:19:58.504Z,660.00
2023-06-19T03:20:58.461Z,661.00
2023-06-19T03:21:58.455Z,690.00
2023-06-19T03:22:58.496Z,646.00
2023-06-19T03:23:58.487Z,617.00
2023-06-19T03:24:58.452Z,615.00
2023-06-19T03:25:58.456Z,599.00
2023-06-19T03:26:58.462Z,548.00
2023-06-19T03:27:58.465Z,511.00
2023-06-19T03:28:58.431Z,500.00
2023-06-19T03:29:58.465Z,499.00
2023-06-19T03:30:58.423Z,495.00
2023-06-19T03:31:58.429Z,499.00
2023-06-19T03:32:58.457Z,499.00
2023-06-19T03:33:58.409Z,500.00
2023-06-19T03:34:58.414Z,501.00
2023-06-19T03:35:58.402Z,503.00
2023-06-19T03:36:58.357Z,500.00
2023-06-19T03:37:58.358Z,512.00
2023-06-19T03:38:58.411Z,516.00
2023-06-19T03:39:58.394Z,502.00
2023-06-19T03:40:58.470Z,502.00
2023-06-19T03:41:58.552Z,526.00
2023-06-19T03:42:58.518Z,500.00
2023-06-19T03:43:58.594Z,522.00
2023-06-19T03:44:58.609Z,508.00
2023-06-19T03:45:58.671Z,511.00
2023-06-19T03:46:58.645Z,500.00
2023-06-19T03:47:58.774Z,505.00
2023-06-19T03:48:58.759Z,511.00
2023-06-19T03:50:07.604Z,533.00
2023-06-19T03:50:59.772Z,534.00
2023-06-19T03:51:58.797Z,549.00
2023-06-19T03:52:58.795Z,579.00
2023-06-19T03:53:59.157Z,652.00
2023-06-19T03:54:58.754Z,846.00
2023-06-19T03:55:58.782Z,729.00
2023-06-19T03:56:58.780Z,656.00
2023-06-19T03:57:59.017Z,618.00
2023-06-19T03:58:59.097Z,628.00
2023-06-19T03:59:58.727Z,658.00
2023-06-19T04:00:58.784Z,652.00
2023-06-19T04:01:58.893Z,622.00
2023-06-19T04:02:58.914Z,609.00
2023-06-19T04:03:58.988Z,599.00
2023-06-19T04:04:58.917Z,615.00
2023-06-19T04:05:58.949Z,583.00
2023-06-19T04:06:58.994Z,588.00
2023-06-19T04:07:58.997Z,621.00
2023-06-19T04:08:59.047Z,662.00
2023-06-19T04:09:59.105Z,747.00
2023-06-19T04:10:59.063Z,739.00
2023-06-19T04:11:59.091Z,858.00
2023-06-19T04:12:59.151Z,921.00
2023-06-19T04:13:59.166Z,1035.00
2023-06-19T04:14:59.158Z,1061.00
2023-06-19T04:15:59.251Z,1069.00
2023-06-19T04:16:59.173Z,1140.00
2023-06-19T04:17:59.237Z,1169.00
2023-06-19T04:18:59.235Z,1251.00
2023-06-19T04:19:59.234Z,1348.00
2023-06-19T04:20:59.204Z,1403.00
2023-06-19T04:21:59.217Z,1444.00
2023-06-19T04:22:59.209Z,1479.00
2023-06-19T04:23:59.313Z,1622.00
2023-06-19T04:24:59.213Z,2008.00
2023-06-19T04:25:59.243Z,2450.00
2023-06-19T04:26:59.218Z,2309.00
2023-06-19T04:27:59.269Z,2186.00
2023-06-19T04:28:59.265Z,1962.00
2023-06-19T04:29:59.303Z,1889.00
2023-06-19T04:30:59.298Z,1879.00
2023-06-19T04:31:59.299Z,1838.00
2023-06-19T04:32:59.419Z,1701.00
2023-06-19T04:33:59.370Z,1557.00
2023-06-19T04:34:59.383Z,1484.00
2023-06-19T04:35:59.472Z,1550.00
2023-06-19T04:36:59.549Z,1704.00
2023-06-19T04:37:59.530Z,1898.00
2023-06-19T04:38:59.579Z,2079.00
2023-06-19T04:39:59.776Z,2309.00
2023-06-19T04:40:59.664Z,2309.00
2023-06-19T04:41:59.608Z,2139.00
2023-06-19T04:42:59.638Z,1941.00
2023-06-19T04:43:59.920Z,1811.00
2023-06-19T04:44:59.670Z,1843.00
2023-06-19T04:45:59.617Z,1857.00
2023-06-19T04:46:59.585Z,1938.00
2023-06-19T04:47:59.572Z,1962.00
2023-06-19T04:48:59.576Z,2014.00
2023-06-19T04:49:59.587Z,2206.00
2023-06-19T04:50:59.565Z,2216.00
2023-06-19T04:51:59.620Z,2321.00
2023-06-19T04:52:59.693Z,2466.00
2023-06-19T04:53:59.716Z,2500.00
2023-06-19T04:54:59.827Z,2457.00
2023-06-19T04:56:02.390Z,2394.00
2023-06-19T04:56:59.845Z,2368.00
2023-06-19T04:57:59.856Z,2214.00
2023-06-19T04:58:59.839Z,2135.00
2023-06-19T04:59:59.848Z,2114.00
2023-06-19T05:02:31.161Z,500.00
2023-06-19T05:03:39.928Z,500.00
2023-06-19T05:04:39.492Z,500.00
2023-06-19T05:05:39.548Z,500.00
2023-06-19T05:06:39.474Z,500.00
2023-06-19T05:07:39.530Z,500.00
2023-06-19T05:08:39.572Z,500.00
2023-06-19T05:09:39.462Z,500.00
2023-06-19T05:10:40.351Z,500.00
2023-06-19T05:11:39.440Z,500.00
2023-06-19T05:12:40.362Z,500.00
2023-06-19T05:13:40.410Z,500.00
2023-06-19T05:14:39.392Z,500.00
2023-06-19T05:15:39.440Z,500.00
2023-06-19T05:16:39.412Z,500.00
2023-06-19T05:17:39.477Z,500.00
2023-06-19T05:18:39.340Z,500.00
2023-06-19T05:19:39.418Z,500.00
2023-06-19T05:20:39.340Z,500.00
2023-06-19T05:21:39.368Z,500.00
2023-06-19T05:22:39.385Z,500.00
2023-06-19T05:23:39.270Z,500.00
2023-06-19T05:24:39.514Z,500.00
2023-06-19T05:25:39.348Z,500.00
2023-06-19T05:26:39.864Z,500.00
2023-06-19T05:27:39.480Z,500.00
2023-06-19T05:28:40.424Z,500.00
2023-06-19T05:29:40.377Z,500.00
2023-06-19T05:30:39.533Z,500.00
2023-06-19T05:31:39.636Z,500.00
2023-06-19T05:32:39.666Z,500.00
2023-06-19T05:33:39.652Z,500.00
2023-06-19T05:34:39.743Z,500.00
2023-06-19T05:35:39.674Z,500.00
2023-06-19T05:36:39.640Z,500.00
2023-06-19T05:37:39.568Z,500.00
2023-06-19T05:38:39.559Z,466.00
2023-06-19T05:39:40.188Z,492.00
2023-06-19T05:40:39.790Z,498.00
2023-06-19T05:41:39.875Z,536.00
2023-06-19T05:42:39.896Z,502.00
2023-06-19T05:43:39.813Z,539.00
2023-06-19T05:44:40.431Z,503.00
2023-06-19T05:45:40.042Z,543.00
2023-06-19T05:46:53.939Z,570.00
2023-06-19T05:48:00.692Z,500.00
2023-06-19T05:48:59.208Z,500.00
2023-06-19T05:49:59.290Z,500.00
2023-06-19T05:50:59.158Z,500.00
2023-06-19T05:51:59.692Z,500.00
2023-06-19T05:52:59.410Z,500.00
2023-06-19T05:53:59.306Z,500.00
2023-06-19T05:54:59.191Z,500.00
2023-06-19T05:55:59.286Z,500.00
2023-06-19T05:57:00.277Z,500.00
2023-06-19T05:58:00.215Z,500.00
2023-06-19T05:59:00.180Z,500.00
2023-06-19T05:59:59.302Z,500.00
2023-06-19T06:01:00.167Z,500.00
2023-06-19T06:01:59.221Z,500.00
2023-06-19T06:02:59.657Z,500.00
2023-06-19T06:03:59.378Z,500.00
2023-06-19T06:04:59.823Z,500.00
2023-06-19T06:05:59.417Z,500.00
2023-06-19T06:06:59.448Z,500.00
2023-06-19T06:07:59.612Z,500.00
2023-06-19T06:09:00.145Z,500.00
2023-06-19T06:10:00.373Z,500.00
2023-06-19T06:11:00.210Z,500.00
2023-06-19T06:12:00.460Z,500.00
2023-06-19T06:12:59.995Z,500.00
2023-06-19T06:14:00.286Z,500.00
2023-06-19T06:15:00.909Z,500.00
2023-06-19T06:16:00.625Z,500.00
2023-06-19T06:17:00.857Z,500.00
2023-06-19T06:18:01.088Z,500.00
2023-06-19T06:19:01.144Z,500.00
2023-06-19T06:20:00.782Z,500.00
2023-06-19T06:21:01.405Z,500.00
2023-06-19T06:22:01.022Z,500.00
2023-06-19T06:23:01.629Z,500.00
2023-06-19T06:24:00.624Z,500.00
2023-06-19T06:25:00.691Z,500.00
2023-06-19T06:26:00.975Z,500.00
2023-06-19T06:27:00.572Z,500.00
2023-06-19T06:28:02.138Z,500.00
2023-06-19T06:29:00.837Z,500.00
2023-06-19T06:30:01.011Z,500.00
2023-06-19T06:31:01.705Z,500.00
2023-06-19T06:32:01.581Z,500.00
2023-06-19T06:33:00.785Z,500.00
2023-06-19T06:34:00.729Z,500.00
2023-06-19T06:35:00.493Z,500.00
2023-06-19T06:36:00.491Z,500.00
2023-06-19T06:37:05.905Z,500.00
2023-06-19T06:38:01.618Z,500.00
2023-06-19T06:39:00.552Z,500.00
2023-06-19T06:40:00.631Z,500.00
2023-06-19T06:41:00.963Z,500.00
2023-06-19T06:42:00.783Z,500.00
2023-06-19T06:43:01.499Z,500.00
2023-06-19T06:44:01.275Z,500.00
2023-06-19T06:45:01.623Z,500.00
2023-06-19T06:46:01.157Z,500.00
2023-06-19T06:47:01.176Z,500.00
2023-06-19T06:48:00.868Z,500.00
2023-06-19T06:49:01.723Z,500.00
2023-06-19T06:50:00.771Z,500.00
2023-06-19T06:51:01.711Z,500.00
2023-06-19T06:52:00.787Z,500.00
2023-06-19T06:53:01.296Z,500.00
2023-06-19T06:54:01.819Z,500.00
2023-06-19T06:55:01.257Z,500.00
2023-06-19T06:56:00.764Z,500.00
2023-06-19T06:57:01.132Z,500.00
2023-06-19T06:58:01.598Z,500.00
2023-06-19T06:59:01.562Z,437.00
2023-06-19T07:00:01.609Z,402.00
2023-06-19T07:01:01.575Z,400.00
2023-06-19T07:02:01.734Z,410.00
2023-06-19T07:03:01.496Z,406.00
2023-06-19T07:04:01.289Z,447.00
2023-06-19T07:05:01.336Z,505.00
2023-06-19T07:06:03.000Z,407.00
2023-06-19T07:07:01.573Z,400.00
2023-06-19T07:08:02.351Z,400.00
2023-06-19T07:09:01.645Z,400.00
2023-06-19T07:10:01.295Z,400.00
2023-06-19T07:11:01.350Z,400.00
2023-06-19T07:12:02.216Z,400.00
2023-06-19T07:13:02.126Z,400.00
2023-06-19T07:14:01.643Z,400.00
2023-06-19T07:15:01.543Z,400.00
2023-06-19T07:16:01.766Z,400.00
2023-06-19T07:17:01.409Z,400.00
2023-06-19T07:18:02.197Z,400.00
2023-06-19T07:19:01.701Z,400.00
2023-06-19T07:20:01.773Z,400.00
2023-06-19T07:21:02.579Z,400.00
2023-06-19T07:22:01.859Z,400.00
2023-06-19T07:23:02.282Z,400.00
2023-06-19T07:24:02.054Z,400.00
2023-06-19T07:25:01.771Z,400.00
2023-06-19T07:26:02.315Z,400.00
2023-06-19T07:27:02.302Z,400.00
2023-06-19T07:28:02.058Z,400.00
2023-06-19T07:29:02.004Z,400.00
2023-06-19T07:30:02.103Z,400.00
2023-06-19T07:31:02.809Z,400.00
2023-06-19T07:32:02.099Z,400.00
2023-06-19T07:33:02.812Z,400.00
2023-06-19T07:34:03.057Z,426.00
2023-06-19T07:35:03.723Z,400.00
2023-06-19T07:36:02.985Z,400.00
2023-06-19T07:37:05.821Z,400.00
2023-06-19T07:38:02.328Z,400.00
2023-06-19T07:39:03.689Z,400.00
2023-06-19T07:40:02.946Z,400.00
2023-06-19T07:41:03.388Z,400.00
2023-06-19T07:42:02.738Z,400.00
2023-06-19T07:43:02.575Z,400.00
2023-06-19T07:44:02.243Z,400.00
2023-06-19T07:45:02.945Z,400.00
2023-06-19T07:46:03.581Z,400.00
2023-06-19T07:47:03.581Z,400.00
2023-06-19T07:48:03.680Z,400.00
2023-06-19T07:49:03.757Z,400.00
2023-06-19T07:50:02.691Z,400.00
2023-06-19T07:51:04.987Z,400.00
2023-06-19T07:52:03.973Z,400.00
2023-06-19T07:53:04.362Z,400.00
2023-06-19T07:54:02.354Z,400.00
2023-06-19T07:55:03.139Z,400.00
2023-06-19T07:56:03.274Z,400.00
2023-06-19T07:57:03.196Z,400.00
2023-06-19T07:58:03.204Z,400.00
2023-06-19T07:59:05.091Z,400.00
2023-06-19T08:00:03.479Z,400.00
2023-06-19T08:01:02.920Z,400.00
2023-06-19T08:02:03.084Z,400.00
2023-06-19T08:03:04.004Z,400.00
2023-06-19T08:04:03.842Z,400.00
2023-06-19T08:05:03.740Z,400.00
2023-06-19T08:06:02.943Z,400.00
2023-06-19T08:07:04.682Z,400.00
2023-06-19T08:08:03.709Z,400.00
2023-06-19T08:09:03.215Z,400.00
2023-06-19T08:10:13.006Z,400.00
2023-06-19T08:11:03.934Z,400.00
2023-06-19T08:12:03.749Z,400.00
2023-06-19T08:13:03.716Z,400.00
2023-06-19T08:14:03.751Z,400.00
2023-06-19T08:15:03.712Z,400.00
2023-06-19T08:16:02.985Z,400.00
2023-06-19T08:17:03.857Z,400.00
2023-06-19T08:18:03.005Z,400.00
2023-06-19T08:19:02.731Z,400.00
2023-06-19T08:20:02.755Z,400.00
2023-06-19T08:21:03.690Z,400.00
2023-06-19T08:22:02.743Z,400.00
2023-06-19T08:23:03.814Z,400.00
2023-06-19T08:24:02.782Z,400.00
2023-06-19T08:25:02.777Z,400.00
2023-06-19T08:26:02.809Z,400.00
2023-06-19T08:27:02.755Z,400.00
2023-06-19T08:28:02.908Z,400.00
2023-06-19T08:29:02.748Z,400.00
2023-06-19T08:30:02.787Z,400.00
2023-06-19T08:31:02.802Z,400.00
2023-06-19T08:32:02.797Z,400.00
2023-06-19T08:33:02.710Z,400.00
2023-06-19T08:34:02.743Z,400.00
2023-06-19T08:35:02.592Z,400.00
2023-06-19T08:36:02.608Z,400.00
2023-06-19T08:37:02.827Z,400.00
2023-06-19T08:38:02.817Z,400.00
2023-06-19T08:39:02.643Z,400.00
2023-06-19T08:40:02.743Z,400.00
2023-06-19T08:41:03.240Z,400.00
2023-06-19T08:42:02.833Z,400.00
2023-06-19T08:43:02.698Z,400.00
2023-06-19T08:44:02.888Z,400.00
2023-06-19T08:45:02.771Z,400.00
2023-06-19T08:46:02.736Z,400.00
2023-06-19T08:47:02.792Z,400.00
2023-06-19T08:48:02.683Z,400.00
2023-06-19T08:49:02.630Z,400.00
2023-06-19T08:50:03.261Z,400.00
2023-06-19T08:51:02.608Z,400.00
2023-06-19T08:52:03.104Z,400.00
2023-06-19T08:53:02.599Z,400.00
2023-06-19T08:54:02.661Z,400.00
2023-06-19T08:55:02.690Z,400.00
2023-06-19T08:56:02.688Z,400.00
2023-06-19T08:57:02.914Z,400.00
2023-06-19T08:58:02.619Z,400.00
2023-06-19T08:59:02.677Z,400.00
2023-06-19T09:00:02.577Z,400.00
2023-06-19T09:01:02.891Z,400.00
2023-06-19T09:02:02.656Z,400.00
2023-06-19T09:03:12.557Z,400.00
2023-06-19T09:04:03.644Z,400.00
2023-06-19T09:05:02.675Z,400.00
2023-06-19T09:06:02.587Z,400.00
2023-06-19T09:07:02.660Z,400.00
2023-06-19T09:08:02.519Z,400.00
2023-06-19T09:09:02.641Z,400.00
2023-06-19T09:10:02.660Z,400.00
2023-06-19T09:11:02.650Z,400.00
2023-06-19T09:12:02.879Z,400.00
2023-06-19T09:13:02.463Z,400.00
2023-06-19T09:14:02.746Z,400.00
2023-06-19T09:15:02.497Z,400.00
2023-06-19T09:16:02.510Z,400.00
2023-06-19T09:17:02.807Z,400.00
2023-06-19T09:18:02.560Z,400.00
2023-06-19T09:19:02.707Z,400.00
2023-06-19T09:20:02.950Z,400.00
2023-06-19T09:21:03.633Z,400.00
2023-06-19T09:22:02.691Z,400.00
2023-06-19T09:23:02.646Z,400.00
2023-06-19T09:24:02.733Z,400.00
2023-06-19T09:25:02.843Z,400.00
2023-06-19T09:26:02.730Z,400.00
2023-06-19T09:27:02.933Z,400.00
2023-06-19T09:28:02.728Z,400.00
2023-06-19T09:29:02.658Z,400.00
2023-06-19T09:30:03.316Z,400.00
2023-06-19T09:31:02.781Z,400.00
2023-06-19T09:32:02.890Z,400.00
2023-06-19T09:33:02.904Z,400.00
2023-06-19T09:34:02.975Z,400.00
2023-06-19T09:35:02.824Z,400.00
2023-06-19T09:36:02.842Z,400.00
2023-06-19T09:37:02.874Z,400.00
2023-06-19T09:38:02.841Z,400.00
2023-06-19T09:39:02.920Z,400.00
2023-06-19T09:40:02.847Z,400.00
2023-06-19T09:41:03.681Z,400.00
2023-06-19T09:42:02.911Z,400.00
2023-06-19T09:43:04.492Z,400.00
2023-06-19T09:44:02.753Z,400.00
2023-06-19T09:45:03.914Z,400.00
2023-06-19T09:46:03.038Z,400.00
2023-06-19T09:47:02.774Z,400.00
2023-06-19T09:48:02.928Z,400.00
2023-06-19T09:49:03.811Z,400.00
2023-06-19T09:50:03.375Z,400.00
2023-06-19T09:51:03.526Z,400.00
2023-06-19T09:52:04.971Z,400.00
2023-06-19T09:53:05.312Z,400.00
2023-06-19T09:54:03.064Z,400.00
2023-06-19T09:55:03.962Z,400.00
2023-06-19T09:56:03.943Z,400.00
2023-06-19T09:57:03.619Z,400.00
2023-06-19T09:58:04.436Z,400.00
2023-06-19T09:59:04.719Z,400.00
2023-06-19T10:00:04.554Z,400.00
2023-06-19T10:01:04.096Z,400.00
2023-06-19T10:02:04.387Z,400.00
2023-06-19T10:03:04.319Z,400.00
2023-06-19T10:04:05.437Z,400.00
2023-06-19T10:06:23.588Z,500.00
2023-06-19T10:07:24.066Z,500.00
2023-06-19T10:08:24.019Z,500.00
2023-06-19T10:09:23.965Z,500.00
2023-06-19T10:10:23.822Z,500.00
2023-06-19T10:11:23.473Z,500.00
2023-06-19T10:12:24.911Z,500.00
2023-06-19T10:13:32.484Z,500.00
2023-06-19T10:14:23.644Z,500.00
2023-06-19T10:15:23.095Z,500.00
2023-06-19T10:16:23.708Z,500.00
2023-06-19T10:17:23.215Z,500.00
2023-06-19T10:18:23.413Z,500.00
2023-06-19T10:19:23.615Z,482.00
2023-06-19T10:20:24.869Z,484.00
2023-06-19T10:21:25.925Z,539.00
2023-06-19T10:22:24.253Z,490.00
2023-06-19T10:23:23.605Z,488.00
2023-06-19T10:28:22.722Z,500.00
2023-06-19T10:29:22.877Z,500.00
2023-06-19T10:30:23.420Z,500.00
2023-06-19T10:31:22.098Z,500.00
2023-06-19T10:32:22.064Z,500.00
2023-06-19T10:33:22.050Z,500.00
2023-06-19T10:34:22.041Z,500.00
2023-06-19T10:35:21.993Z,500.00
2023-06-19T10:36:22.106Z,495.00
2023-06-19T10:37:22.080Z,504.00
2023-06-19T10:38:22.166Z,401.00
2023-06-19T10:39:22.191Z,400.00
2023-06-19T10:40:22.602Z,484.00
2023-06-19T10:41:22.004Z,635.00
2023-06-19T10:42:21.958Z,516.00
2023-06-19T10:43:22.226Z,536.00
2023-06-19T10:44:22.045Z,461.00
2023-06-19T10:45:21.989Z,500.00
2023-06-19T10:46:22.112Z,494.00
2023-06-19T10:47:22.376Z,550.00
2023-06-19T10:48:22.146Z,676.00
2023-06-19T10:49:21.939Z,831.00
2023-06-19T10:50:22.152Z,864.00
2023-06-19T10:51:21.908Z,779.00
2023-06-19T10:52:21.938Z,1723.00
2023-06-19T10:53:22.126Z,1142.00
2023-06-19T10:54:21.915Z,1140.00
2023-06-19T10:55:22.150Z,1156.00
2023-06-19T10:56:21.949Z,1201.00
2023-06-19T10:57:21.885Z,1333.00
2023-06-19T10:58:22.380Z,985.00
2023-06-19T10:59:21.898Z,841.00
2023-06-19T11:00:22.151Z,851.00
2023-06-19T11:01:21.896Z,519.00
2023-06-19T11:02:21.972Z,659.00
2023-06-19T11:03:22.194Z,1553.00
2023-06-19T11:04:21.877Z,1020.00
2023-06-19T11:05:22.458Z,819.00
2023-06-19T11:06:21.901Z,692.00
2023-06-19T11:07:21.857Z,552.00
2023-06-19T11:08:21.986Z,550.00
2023-06-19T11:09:21.798Z,953.00
2023-06-19T11:10:21.908Z,1565.00
2023-06-19T11:11:21.810Z,1041.00
2023-06-19T11:12:21.863Z,628.00
2023-06-19T11:13:22.179Z,566.00
2023-06-19T11:14:22.094Z,511.00
2023-06-19T11:15:21.834Z,492.00
2023-06-19T11:16:21.836Z,500.00
2023-06-19T11:17:21.916Z,633.00
2023-06-19T11:18:21.863Z,625.00
2023-06-19T11:19:21.933Z,930.00
2023-06-19T11:20:22.369Z,824.00
2023-06-19T11:21:21.763Z,1427.00
2023-06-19T11:22:21.735Z,611.00
2023-06-19T11:23:21.725Z,804.00
2023-06-19T11:24:22.408Z,777.00
2023-06-19T11:25:21.729Z,771.00
2023-06-19T11:26:22.022Z,613.00
2023-06-19T11:27:21.870Z,636.00
2023-06-19T11:28:22.029Z,481.00
2023-06-19T11:29:22.154Z,502.00
2023-06-19T11:30:22.051Z,640.00
2023-06-19T11:31:22.964Z,596.00
2023-06-19T11:32:22.267Z,1109.00
2023-06-19T11:33:22.070Z,1340.00
2023-06-19T11:34:24.649Z,862.00
2023-06-19T11:35:22.066Z,654.00
2023-06-19T11:36:22.031Z,773.00
2023-06-19T11:37:22.040Z,620.00
2023-06-19T11:38:21.992Z,578.00
2023-06-19T11:39:22.110Z,647.00
2023-06-19T11:40:22.220Z,604.00
2023-06-19T11:41:22.018Z,759.00
2023-06-19T11:42:22.048Z,867.00
2023-06-19T11:43:21.978Z,622.00
2023-06-19T11:44:22.037Z,1153.00
2023-06-19T11:45:22.079Z,1533.00
2023-06-19T11:46:21.993Z,1136.00
2023-06-19T11:47:22.000Z,1256.00
2023-06-19T11:48:22.063Z,1117.00
2023-06-19T11:49:21.996Z,686.00
2023-06-19T11:50:23.378Z,558.00
2023-06-19T11:51:22.001Z,444.00
2023-06-19T11:52:21.884Z,509.00
2023-06-19T11:53:21.939Z,492.00
2023-06-19T11:54:22.075Z,1178.00
2023-06-19T11:55:21.885Z,1167.00
2023-06-19T11:56:21.971Z,866.00
2023-06-19T11:57:21.905Z,696.00
2023-06-19T11:58:22.055Z,1080.00
2023-06-19T11:59:21.856Z,651.00
2023-06-19T12:00:22.142Z,526.00
2023-06-19T12:01:21.841Z,488.00
2023-06-19T12:02:21.956Z,554.00
2023-06-19T12:03:22.087Z,598.00
2023-06-19T12:04:22.202Z,660.00
2023-06-19T12:05:21.854Z,1094.00
2023-06-19T12:06:21.840Z,573.00
2023-06-19T12:07:21.821Z,699.00
2023-06-19T12:08:21.791Z,579.00
2023-06-19T12:09:21.812Z,609.00
2023-06-19T12:10:22.156Z,540.00
2023-06-19T12:11:21.797Z,610.00
2023-06-19T12:12:21.770Z,933.00
2023-06-19T12:13:21.815Z,637.00
2023-06-19T12:14:21.784Z,541.00
2023-06-19T12:15:21.792Z,492.00
2023-06-19T12:16:21.801Z,880.00
2023-06-19T12:17:21.787Z,665.00
2023-06-19T12:18:21.789Z,537.00
2023-06-19T12:19:21.800Z,566.00
2023-06-19T12:20:21.995Z,633.00
2023-06-19T12:21:35.005Z,680.00
2023-06-19T12:22:22.729Z,578.00
2023-06-19T12:23:21.694Z,733.00
2023-06-19T12:24:21.784Z,793.00
2023-06-19T12:25:21.663Z,749.00
2023-06-19T12:26:21.790Z,529.00
2023-06-19T12:27:21.711Z,593.00
2023-06-19T12:28:21.671Z,666.00
2023-06-19T12:29:21.674Z,659.00
2023-06-19T12:30:21.816Z,734.00